createdAt,value
2023-03-27T00:01:02.043Z,8.50
2023-03-27T00:02:03.991Z,8.47
2023-03-27T00:03:07.050Z,8.47
2023-03-27T00:04:09.297Z,8.48
2023-03-27T00:05:12.216Z,8.50
2023-03-27T00:06:16.726Z,8.46
2023-03-27T00:07:20.009Z,8.46
2023-03-27T00:08:21.851Z,8.49
2023-03-27T00:09:25.703Z,8.49
2023-03-27T00:10:28.969Z,8.50
2023-03-27T00:11:31.938Z,8.46
2023-03-27T00:12:33.821Z,8.47
2023-03-27T00:13:49.059Z,8.47
2023-03-27T00:14:52.548Z,8.46
2023-03-27T00:15:57.028Z,8.45
2023-03-27T00:17:00.218Z,8.46
2023-03-27T00:18:04.393Z,8.45
2023-03-27T00:19:06.287Z,8.47
2023-03-27T00:20:09.676Z,8.49
2023-03-27T00:21:11.561Z,8.52
2023-03-27T00:22:14.410Z,8.50
2023-03-27T00:23:16.488Z,8.50
2023-03-27T00:24:19.252Z,8.51
2023-03-27T00:25:22.720Z,8.53
2023-03-27T00:26:25.528Z,8.46
2023-03-27T00:27:27.551Z,8.43
2023-03-27T00:28:31.061Z,8.45
2023-03-27T00:29:34.491Z,8.43
2023-03-27T00:30:38.416Z,8.45
2023-03-27T00:31:40.368Z,8.49
2023-03-27T00:32:43.391Z,8.51
2023-03-27T00:33:45.462Z,8.48
2023-03-27T00:34:48.266Z,8.43
2023-03-27T00:35:51.570Z,8.48
2023-03-27T00:36:54.426Z,8.45
2023-03-27T00:37:57.188Z,8.46
2023-03-27T00:39:00.018Z,8.45
2023-03-27T00:40:02.039Z,8.47
2023-03-27T00:41:05.094Z,8.45
2023-03-27T00:42:13.115Z,8.44
2023-03-27T00:43:20.606Z,8.45
2023-03-27T00:44:25.136Z,8.46
2023-03-27T00:45:32.966Z,8.45
2023-03-27T00:46:40.982Z,8.45
2023-03-27T00:47:44.527Z,8.45
2023-03-27T00:48:51.471Z,8.44
2023-03-27T00:49:54.484Z,8.45
2023-03-27T00:50:57.526Z,8.44
2023-03-27T00:52:03.612Z,8.45
2023-03-27T00:53:09.599Z,8.45
2023-03-27T00:54:16.338Z,8.48
2023-03-27T00:55:20.053Z,8.46
2023-03-27T00:56:25.490Z,8.43
2023-03-27T00:57:27.575Z,8.43
2023-03-27T00:58:33.196Z,8.42
2023-03-27T00:59:40.750Z,8.43
2023-03-27T01:00:45.028Z,8.44
2023-03-27T01:01:47.519Z,8.43
2023-03-27T01:02:51.661Z,8.43
2023-03-27T01:03:54.346Z,8.43
2023-03-27T01:04:58.330Z,8.42
2023-03-27T01:06:02.404Z,8.41
2023-03-27T01:07:07.398Z,8.37
2023-03-27T01:08:11.666Z,8.35
2023-03-27T01:09:20.695Z,8.34
2023-03-27T01:10:30.551Z,8.34
2023-03-27T01:11:45.858Z,8.33
2023-03-27T01:12:59.393Z,8.37
2023-03-27T01:14:13.379Z,8.35
2023-03-27T01:15:29.448Z,8.36
2023-03-27T01:16:43.126Z,8.35
2023-03-27T01:17:58.843Z,8.36
2023-03-27T01:19:24.812Z,8.37
2023-03-27T01:21:06.548Z,8.39
2023-03-27T01:22:34.874Z,8.39
2023-03-27T01:24:03.798Z,8.37
2023-03-27T01:25:30.555Z,8.34
2023-03-27T01:27:00.118Z,8.33
2023-03-27T01:28:21.921Z,8.33
2023-03-27T01:29:33.762Z,8.30
2023-03-27T01:30:39.979Z,8.29
2023-03-27T01:32:02.084Z,8.28
2023-03-27T01:33:21.623Z,8.29
2023-03-27T01:34:44.952Z,8.28
2023-03-27T01:36:18.940Z,8.27
2023-03-27T01:37:47.662Z,8.20
2023-03-27T01:39:24.774Z,8.19
2023-03-27T01:40:33.672Z,8.19
2023-03-27T01:41:42.623Z,8.17
2023-03-27T01:42:50.015Z,8.13
2023-03-27T01:43:57.188Z,8.14
2023-03-27T01:45:09.743Z,8.15
2023-03-27T01:46:18.195Z,8.17
2023-03-27T01:47:28.313Z,8.15
2023-03-27T01:48:37.042Z,8.13
2023-03-27T01:49:45.498Z,8.12
2023-03-27T01:50:52.285Z,8.13
2023-03-27T01:51:59.242Z,8.14
2023-03-27T01:53:07.111Z,8.14
2023-03-27T01:54:17.413Z,8.16
2023-03-27T01:55:24.965Z,8.12
2023-03-27T01:56:32.782Z,8.12
2023-03-27T01:57:49.278Z,8.10
2023-03-27T01:58:57.657Z,8.11
2023-03-27T02:00:18.039Z,8.10
2023-03-27T02:01:25.222Z,8.10
2023-03-27T02:02:32.445Z,8.10
2023-03-27T02:03:37.711Z,8.12
2023-03-27T02:04:46.853Z,8.13
2023-03-27T02:05:53.438Z,8.15
2023-03-27T02:07:00.588Z,8.14
2023-03-27T02:08:07.654Z,8.13
2023-03-27T02:09:19.011Z,8.14
2023-03-27T02:10:25.291Z,8.09
2023-03-27T02:11:32.113Z,8.11
2023-03-27T02:12:38.032Z,8.11
2023-03-27T02:13:44.535Z,8.10
2023-03-27T02:14:53.347Z,8.11
2023-03-27T02:16:00.901Z,8.12
2023-03-27T02:17:10.235Z,8.10
2023-03-27T02:18:20.509Z,8.11
2023-03-27T02:19:27.564Z,8.08
2023-03-27T02:20:30.541Z,8.06
2023-03-27T02:21:33.940Z,8.05
2023-03-27T02:22:40.142Z,8.05
2023-03-27T02:23:43.519Z,8.03
2023-03-27T02:24:49.074Z,8.06
2023-03-27T02:25:54.296Z,8.08
2023-03-27T02:26:59.795Z,8.04
2023-03-27T02:28:28.069Z,8.03
2023-03-27T02:29:44.571Z,8.03
2023-03-27T02:31:05.393Z,8.01
2023-03-27T02:32:35.010Z,8.04
2023-03-27T02:33:51.992Z,8.04
2023-03-27T02:35:11.860Z,8.04
2023-03-27T02:36:28.403Z,8.03
2023-03-27T02:37:44.014Z,8.02
2023-03-27T02:38:59.144Z,8.03
2023-03-27T02:40:13.814Z,8.03
2023-03-27T02:41:20.949Z,8.04
2023-03-27T02:42:28.940Z,8.01
2023-03-27T02:43:43.796Z,7.99
2023-03-27T02:44:57.674Z,8.03
2023-03-27T02:46:07.552Z,8.02
2023-03-27T02:47:12.986Z,8.05
2023-03-27T02:48:21.495Z,8.07
2023-03-27T02:49:28.716Z,8.04
2023-03-27T02:50:38.108Z,8.06
2023-03-27T02:51:49.532Z,8.11
2023-03-27T02:52:56.004Z,8.06
2023-03-27T02:54:01.275Z,8.06
2023-03-27T02:55:12.674Z,8.07
2023-03-27T02:56:16.918Z,8.06
2023-03-27T02:57:25.068Z,8.03
2023-03-27T02:59:01.347Z,8.04
2023-03-27T03:00:18.387Z,8.05
2023-03-27T03:01:26.752Z,8.05
2023-03-27T03:03:08.105Z,8.05
2023-03-27T03:04:16.776Z,8.05
2023-03-27T03:05:50.824Z,8.05
2023-03-27T03:06:54.089Z,8.05
2023-03-27T03:07:58.107Z,8.06
2023-03-27T03:09:05.922Z,8.06
2023-03-27T03:10:12.493Z,8.04
2023-03-27T03:11:15.537Z,8.05
2023-03-27T03:12:18.430Z,8.05
2023-03-27T03:13:20.863Z,8.06
2023-03-27T03:14:26.989Z,8.06
2023-03-27T03:15:28.868Z,8.05
2023-03-27T03:16:32.149Z,8.06
2023-03-27T03:17:34.747Z,8.05
2023-03-27T03:18:37.641Z,8.04
2023-03-27T03:19:39.642Z,8.04
2023-03-27T03:20:42.847Z,8.01
2023-03-27T03:21:46.837Z,7.98
2023-03-27T03:22:49.642Z,7.97
2023-03-27T03:23:58.657Z,7.97
2023-03-27T03:25:04.001Z,7.98
2023-03-27T03:26:08.753Z,7.98
2023-03-27T03:27:22.389Z,7.97
2023-03-27T03:29:01.035Z,7.97
2023-03-27T03:30:09.524Z,7.93
2023-03-27T03:31:48.560Z,7.85
2023-03-27T03:32:50.833Z,7.82
2023-03-27T03:33:53.793Z,7.82
2023-03-27T03:34:56.886Z,7.83
2023-03-27T03:36:00.836Z,7.72
2023-03-27T03:37:10.569Z,7.73
2023-03-27T03:38:13.530Z,7.75
2023-03-27T03:39:22.857Z,7.76
2023-03-27T03:40:25.454Z,7.79
2023-03-27T03:41:34.195Z,7.80
2023-03-27T03:42:36.794Z,7.81
2023-03-27T03:43:40.342Z,7.84
2023-03-27T03:44:43.491Z,7.85
2023-03-27T03:45:53.783Z,7.85
2023-03-27T03:46:55.749Z,7.84
2023-03-27T03:47:58.644Z,7.83
2023-03-27T03:49:00.660Z,7.78
2023-03-27T03:50:05.244Z,7.80
2023-03-27T03:51:07.631Z,7.74
2023-03-27T03:52:10.597Z,7.76
2023-03-27T03:53:12.990Z,7.75
2023-03-27T03:54:16.106Z,7.76
2023-03-27T03:55:19.448Z,7.73
2023-03-27T03:56:22.300Z,7.71
2023-03-27T03:57:28.043Z,7.68
2023-03-27T03:58:48.192Z,7.69
2023-03-27T03:59:50.274Z,7.63
2023-03-27T04:01:26.147Z,7.65
2023-03-27T04:02:34.882Z,7.67
2023-03-27T04:03:44.934Z,7.68
2023-03-27T04:04:46.884Z,7.69
2023-03-27T04:05:51.090Z,7.61
2023-03-27T04:06:58.041Z,7.63
2023-03-27T04:08:07.191Z,7.65
2023-03-27T04:09:28.673Z,7.66
2023-03-27T04:10:41.371Z,7.56
2023-03-27T04:11:56.874Z,7.55
2023-03-27T04:13:27.353Z,7.49
2023-03-27T04:14:45.758Z,7.48
2023-03-27T04:16:09.005Z,7.46
2023-03-27T04:17:15.671Z,7.40
2023-03-27T04:18:19.625Z,7.31
2023-03-27T04:19:22.403Z,7.19
2023-03-27T04:20:34.676Z,7.16
2023-03-27T04:21:38.816Z,7.11
2023-03-27T04:22:46.360Z,7.11
2023-03-27T04:23:51.226Z,7.12
2023-03-27T04:25:02.176Z,7.06
2023-03-27T04:26:06.106Z,7.12
2023-03-27T04:27:30.410Z,7.20
2023-03-27T04:28:44.338Z,7.22
2023-03-27T04:30:09.556Z,7.31
2023-03-27T04:31:46.575Z,7.33
2023-03-27T04:33:23.080Z,7.38
2023-03-27T04:34:46.613Z,7.39
2023-03-27T04:36:19.519Z,7.45
2023-03-27T04:37:34.382Z,7.42
2023-03-27T04:38:57.494Z,7.41
2023-03-27T04:40:00.321Z,7.37
2023-03-27T04:41:03.765Z,7.27
2023-03-27T04:42:06.448Z,7.21
2023-03-27T04:43:09.248Z,7.20
2023-03-27T04:44:12.504Z,7.06
2023-03-27T04:45:20.344Z,7.01
2023-03-27T04:46:26.069Z,7.07
2023-03-27T04:47:37.751Z,7.14
2023-03-27T04:48:40.956Z,7.19
2023-03-27T04:50:04.919Z,7.22
2023-03-27T04:51:09.341Z,7.26
2023-03-27T04:52:14.153Z,7.26
2023-03-27T04:53:17.960Z,7.30
2023-03-27T04:54:22.876Z,7.33
2023-03-27T04:55:26.742Z,7.32
2023-03-27T04:56:30.779Z,7.25
2023-03-27T04:57:34.740Z,7.22
2023-03-27T04:58:37.645Z,7.12
2023-03-27T04:59:47.856Z,7.10
2023-03-27T05:01:10.038Z,7.01
2023-03-27T05:02:54.865Z,6.99
2023-03-27T05:04:11.838Z,7.00
2023-03-27T05:05:27.619Z,7.01
2023-03-27T05:06:29.840Z,6.98
2023-03-27T05:07:33.044Z,6.90
2023-03-27T05:08:36.421Z,6.80
2023-03-27T05:09:39.349Z,6.73
2023-03-27T05:10:43.433Z,6.68
2023-03-27T05:11:49.640Z,6.69
2023-03-27T05:12:56.436Z,6.75
2023-03-27T05:13:59.944Z,6.77
2023-03-27T05:15:07.278Z,6.83
2023-03-27T05:16:13.166Z,6.84
2023-03-27T05:17:21.117Z,6.78
2023-03-27T05:18:24.007Z,6.73
2023-03-27T05:19:26.781Z,6.68
2023-03-27T05:20:35.095Z,6.62
2023-03-27T05:21:43.117Z,6.64
2023-03-27T05:22:47.422Z,6.63
2023-03-27T05:23:58.029Z,6.52
2023-03-27T05:25:01.022Z,6.52
2023-03-27T05:26:03.001Z,6.50
2023-03-27T05:27:34.993Z,6.54
2023-03-27T05:28:36.972Z,6.60
2023-03-27T05:29:47.125Z,6.69
2023-03-27T05:30:52.703Z,6.66
2023-03-27T05:31:59.515Z,6.73
2023-03-27T05:33:16.505Z,6.75
2023-03-27T05:34:20.763Z,6.80
2023-03-27T05:35:28.442Z,6.86
2023-03-27T05:36:32.749Z,6.87
2023-03-27T05:37:36.375Z,6.91
2023-03-27T05:39:05.512Z,6.97
2023-03-27T05:40:22.250Z,6.85
2023-03-27T05:41:25.019Z,6.80
2023-03-27T05:42:27.920Z,6.86
2023-03-27T05:43:32.174Z,6.92
2023-03-27T05:44:35.438Z,6.86
2023-03-27T05:45:37.401Z,6.88
2023-03-27T05:46:42.651Z,6.83
2023-03-27T05:47:52.067Z,6.77
2023-03-27T05:48:55.057Z,6.67
2023-03-27T05:49:58.658Z,6.63
2023-03-27T05:51:01.913Z,6.58
2023-03-27T05:52:05.098Z,6.58
2023-03-27T05:53:10.057Z,6.59
2023-03-27T05:54:17.151Z,6.54
2023-03-27T05:55:30.482Z,6.50
2023-03-27T05:56:33.698Z,6.48
2023-03-27T05:57:39.898Z,6.44
2023-03-27T05:58:42.285Z,6.42
2023-03-27T05:59:45.125Z,6.43
2023-03-27T06:00:54.064Z,6.45
2023-03-27T06:01:59.487Z,6.33
2023-03-27T06:03:14.175Z,6.38
2023-03-27T06:04:34.244Z,6.46
2023-03-27T06:05:42.166Z,6.39
2023-03-27T06:06:44.587Z,6.40
2023-03-27T06:07:48.695Z,6.40
2023-03-27T06:08:50.721Z,6.45
2023-03-27T06:09:53.813Z,6.50
2023-03-27T06:11:19.220Z,6.59
2023-03-27T06:12:22.401Z,6.53
2023-03-27T06:13:29.068Z,6.51
2023-03-27T06:14:41.387Z,6.44
2023-03-27T06:16:12.114Z,6.37
2023-03-27T06:17:35.676Z,6.27
2023-03-27T06:18:40.690Z,6.26
2023-03-27T06:19:42.610Z,6.24
2023-03-27T06:20:45.437Z,6.15
2023-03-27T06:21:48.760Z,6.16
2023-03-27T06:22:52.564Z,6.15
2023-03-27T06:24:04.091Z,6.08
2023-03-27T06:25:06.961Z,6.14
2023-03-27T06:26:10.090Z,6.00
2023-03-27T06:27:11.972Z,6.04
2023-03-27T06:28:16.344Z,5.99
2023-03-27T06:29:21.202Z,6.02
2023-03-27T06:30:26.946Z,6.07
2023-03-27T06:31:48.700Z,6.01
2023-03-27T06:33:00.717Z,6.10
2023-03-27T06:34:03.812Z,6.15
2023-03-27T06:35:29.565Z,6.14
2023-03-27T06:36:44.175Z,6.19
2023-03-27T06:37:51.282Z,6.26
2023-03-27T06:38:56.367Z,6.35
2023-03-27T06:39:58.436Z,6.39
2023-03-27T06:41:01.763Z,6.39
2023-03-27T06:42:24.941Z,6.32
2023-03-27T06:43:34.594Z,6.40
2023-03-27T06:44:45.654Z,6.40
2023-03-27T06:45:59.802Z,6.44
2023-03-27T06:47:02.147Z,6.41
2023-03-27T06:48:15.374Z,6.25
2023-03-27T06:49:24.225Z,6.20
2023-03-27T06:50:30.348Z,6.09
2023-03-27T06:51:35.016Z,6.14
2023-03-27T06:52:37.327Z,6.08
2023-03-27T06:53:55.437Z,5.99
2023-03-27T06:54:58.863Z,5.97
2023-03-27T06:56:01.943Z,6.00
2023-03-27T06:57:18.387Z,6.12
2023-03-27T06:58:34.870Z,6.07
2023-03-27T06:59:37.079Z,6.18
2023-03-27T07:00:41.258Z,6.25
2023-03-27T07:02:08.105Z,6.31
2023-03-27T07:03:32.384Z,6.25
2023-03-27T07:05:08.368Z,6.17
2023-03-27T07:06:16.442Z,6.22
2023-03-27T07:07:26.842Z,6.05
2023-03-27T07:08:29.837Z,5.93
2023-03-27T07:09:36.729Z,5.90
2023-03-27T07:10:42.963Z,5.87
2023-03-27T07:11:44.957Z,5.95
2023-03-27T07:12:48.583Z,5.97
2023-03-27T07:13:52.061Z,5.99
2023-03-27T07:15:13.722Z,6.04
2023-03-27T07:16:16.690Z,5.97
2023-03-27T07:17:18.812Z,5.94
2023-03-27T07:18:34.794Z,5.86
2023-03-27T07:19:36.732Z,5.77
2023-03-27T07:20:45.523Z,5.88
2023-03-27T07:21:51.515Z,5.93
2023-03-27T07:22:56.454Z,5.93
2023-03-27T07:24:25.536Z,5.95
2023-03-27T07:25:32.689Z,5.98
2023-03-27T07:26:36.113Z,5.86
2023-03-27T07:28:00.476Z,5.80
2023-03-27T07:29:05.947Z,5.71
2023-03-27T07:30:12.172Z,5.59
2023-03-27T07:31:31.654Z,5.62
2023-03-27T07:32:40.105Z,5.71
2023-03-27T07:33:45.969Z,5.72
2023-03-27T07:34:50.357Z,5.74
2023-03-27T07:35:56.647Z,5.81
2023-03-27T07:37:14.506Z,5.76
2023-03-27T07:38:35.237Z,5.86
2023-03-27T07:39:45.930Z,5.70
2023-03-27T07:40:50.403Z,5.67
2023-03-27T07:42:13.288Z,5.70
2023-03-27T07:43:27.868Z,5.77
2023-03-27T07:44:31.533Z,5.78
2023-03-27T07:45:40.060Z,5.86
2023-03-27T07:46:42.049Z,5.91
2023-03-27T07:47:46.895Z,5.98
2023-03-27T07:48:51.262Z,6.01
2023-03-27T07:49:57.678Z,5.99
2023-03-27T07:51:12.824Z,6.00
2023-03-27T07:52:16.483Z,5.96
2023-03-27T07:53:33.928Z,5.99
2023-03-27T07:54:48.143Z,6.05
2023-03-27T07:55:53.635Z,5.97
2023-03-27T07:56:57.125Z,5.92
2023-03-27T07:58:09.316Z,5.89
2023-03-27T07:59:16.277Z,5.83
2023-03-27T08:00:22.773Z,5.90
2023-03-27T08:01:37.680Z,5.86
2023-03-27T08:02:40.043Z,5.87
2023-03-27T08:03:43.160Z,5.88
2023-03-27T08:04:48.207Z,5.86
2023-03-27T08:05:55.239Z,5.94
2023-03-27T08:07:00.515Z,6.01
2023-03-27T08:08:03.595Z,5.90
2023-03-27T08:09:18.372Z,5.82
2023-03-27T08:10:21.365Z,5.86
2023-03-27T08:11:32.743Z,5.92
2023-03-27T08:12:35.479Z,5.94
2023-03-27T08:13:39.698Z,5.96
2023-03-27T08:14:43.042Z,5.96
2023-03-27T08:15:53.114Z,5.90
2023-03-27T08:17:14.452Z,5.85
2023-03-27T08:18:19.054Z,5.82
2023-03-27T08:19:21.469Z,5.83
2023-03-27T08:20:30.254Z,5.87
2023-03-27T08:21:34.636Z,5.97
2023-03-27T08:22:38.077Z,6.10
2023-03-27T08:23:59.692Z,6.02
2023-03-27T08:25:29.778Z,5.94
2023-03-27T08:26:35.043Z,5.89
2023-03-27T08:27:42.011Z,5.91
2023-03-27T08:28:44.299Z,5.94
2023-03-27T08:29:47.689Z,5.96
2023-03-27T08:30:49.724Z,5.95
2023-03-27T08:31:52.734Z,5.93
2023-03-27T08:32:56.082Z,5.94
2023-03-27T08:33:58.088Z,5.87
2023-03-27T08:35:03.793Z,5.89
2023-03-27T08:36:10.312Z,5.92
2023-03-27T08:37:13.801Z,5.95
2023-03-27T08:38:33.541Z,5.91
2023-03-27T08:39:35.678Z,5.85
2023-03-27T08:40:43.338Z,5.80
2023-03-27T08:42:17.823Z,5.70
2023-03-27T08:43:27.706Z,5.66
2023-03-27T08:44:34.129Z,5.63
2023-03-27T08:45:47.429Z,5.60
2023-03-27T08:46:56.745Z,5.59
2023-03-27T08:48:05.633Z,5.67
2023-03-27T08:49:15.061Z,5.72
2023-03-27T08:50:41.346Z,5.73
2023-03-27T08:51:59.239Z,5.78
2023-03-27T08:53:05.788Z,5.87
2023-03-27T08:54:17.804Z,5.83
2023-03-27T08:55:26.240Z,5.90
2023-03-27T08:56:38.580Z,5.77
2023-03-27T08:57:41.501Z,5.70
2023-03-27T08:58:49.947Z,5.65
2023-03-27T09:00:01.144Z,5.67
2023-03-27T09:01:20.153Z,5.74
2023-03-27T09:02:34.711Z,5.72
2023-03-27T09:03:46.478Z,5.71
2023-03-27T09:04:56.931Z,5.09
2023-03-27T09:06:06.398Z,4.32
2023-03-27T09:07:20.593Z,3.74
2023-03-27T09:09:02.485Z,3.49
2023-03-27T09:10:15.335Z,3.41
2023-03-27T09:11:33.772Z,3.47
2023-03-27T09:12:56.802Z,3.49
2023-03-27T09:14:04.062Z,3.43
2023-03-27T09:15:12.445Z,3.30
2023-03-27T09:16:18.802Z,3.41
2023-03-27T09:17:27.139Z,3.33
2023-03-27T09:18:44.205Z,3.44
2023-03-27T09:19:58.645Z,3.46
2023-03-27T09:21:05.766Z,3.50
2023-03-27T09:22:15.502Z,3.40
2023-03-27T09:23:42.830Z,3.39
2023-03-27T09:24:51.050Z,3.47
2023-03-27T09:26:11.032Z,3.40
2023-03-27T09:27:36.468Z,3.43
2023-03-27T09:29:02.837Z,3.48
2023-03-27T09:30:22.318Z,3.45
2023-03-27T09:31:35.952Z,3.47
2023-03-27T09:32:43.581Z,3.42
2023-03-27T09:33:47.183Z,3.51
2023-03-27T09:34:49.466Z,3.55
2023-03-27T09:35:52.902Z,3.61
2023-03-27T09:36:56.054Z,3.51
2023-03-27T09:38:03.809Z,3.49
2023-03-27T09:39:13.565Z,3.46
2023-03-27T09:40:24.501Z,3.44
2023-03-27T09:41:33.318Z,3.33
2023-03-27T09:42:40.718Z,3.49
2023-03-27T09:43:53.566Z,3.51
2023-03-27T09:44:58.315Z,3.45
2023-03-27T09:46:05.588Z,3.51
2023-03-27T09:47:14.389Z,3.69
2023-03-27T09:48:29.597Z,3.69
2023-03-27T09:49:35.760Z,3.65
2023-03-27T09:50:47.044Z,3.68
2023-03-27T09:52:02.520Z,3.53
2023-03-27T09:53:27.872Z,3.48
2023-03-27T09:54:52.963Z,3.36
2023-03-27T09:56:02.983Z,3.35
2023-03-27T09:57:13.451Z,3.31
2023-03-27T09:58:24.445Z,3.35
2023-03-27T09:59:33.414Z,3.23
2023-03-27T10:00:43.428Z,3.23
2023-03-27T10:01:48.618Z,3.39
2023-03-27T10:03:00.487Z,3.51
2023-03-27T10:04:13.942Z,3.61
2023-03-27T10:05:23.075Z,3.67
2023-03-27T10:06:33.067Z,3.69
2023-03-27T10:07:42.562Z,3.60
2023-03-27T10:08:52.163Z,3.50
2023-03-27T10:10:08.417Z,3.49
2023-03-27T10:11:29.280Z,3.53
2023-03-27T10:12:46.787Z,3.61
2023-03-27T10:13:51.213Z,3.39
2023-03-27T10:14:56.752Z,3.30
2023-03-27T10:16:06.009Z,3.38
2023-03-27T10:17:27.690Z,3.34
2023-03-27T10:18:43.396Z,3.31
2023-03-27T10:19:55.206Z,3.42
2023-03-27T10:21:00.665Z,3.41
2023-03-27T10:22:17.966Z,3.31
2023-03-27T10:23:24.517Z,3.39
2023-03-27T10:24:34.439Z,3.71
2023-03-27T10:26:03.366Z,4.23
2023-03-27T10:27:23.458Z,4.53
2023-03-27T10:29:02.437Z,4.72
2023-03-27T10:30:30.130Z,4.80
2023-03-27T10:31:57.879Z,4.80
2023-03-27T10:33:31.934Z,4.86
2023-03-27T10:34:55.629Z,4.92
2023-03-27T10:36:00.572Z,4.98
2023-03-27T10:37:21.636Z,5.09
2023-03-27T10:38:29.793Z,5.09
2023-03-27T10:39:44.580Z,5.12
2023-03-27T10:41:00.259Z,5.02
2023-03-27T10:42:16.354Z,5.06
2023-03-27T10:43:29.778Z,5.06
2023-03-27T10:44:31.788Z,5.10
2023-03-27T10:45:48.714Z,5.08
2023-03-27T10:46:50.946Z,5.08
2023-03-27T10:47:59.101Z,5.11
2023-03-27T10:49:10.128Z,5.07
2023-03-27T10:50:19.594Z,5.10
2023-03-27T10:51:43.104Z,5.17
2023-03-27T10:53:02.324Z,5.22
2023-03-27T10:54:17.043Z,5.26
2023-03-27T10:55:44.965Z,5.29
2023-03-27T10:56:57.071Z,5.32
2023-03-27T10:58:06.402Z,5.28
2023-03-27T10:59:25.436Z,5.30
2023-03-27T11:00:41.012Z,5.31
2023-03-27T11:01:48.217Z,5.34
2023-03-27T11:02:57.514Z,5.33
2023-03-27T11:04:04.661Z,5.33
2023-03-27T11:05:17.936Z,5.37
2023-03-27T11:06:27.219Z,5.41
2023-03-27T11:07:33.911Z,5.44
2023-03-27T11:08:51.220Z,5.46
2023-03-27T11:10:04.816Z,5.48
2023-03-27T11:11:20.807Z,5.44
2023-03-27T11:12:31.856Z,5.45
2023-03-27T11:13:47.580Z,5.44
2023-03-27T11:14:57.429Z,5.39
2023-03-27T11:16:12.710Z,5.32
2023-03-27T11:17:50.046Z,5.37
2023-03-27T11:19:11.868Z,5.37
2023-03-27T11:20:44.378Z,5.26
2023-03-27T11:22:05.432Z,5.22
2023-03-27T11:23:17.457Z,5.22
2023-03-27T11:24:45.658Z,5.18
2023-03-27T11:25:51.710Z,5.20
2023-03-27T11:27:06.069Z,5.24
2023-03-27T11:28:18.479Z,5.28
2023-03-27T11:29:28.348Z,5.32
2023-03-27T11:30:40.328Z,5.38
2023-03-27T11:31:46.623Z,5.41
2023-03-27T11:33:09.264Z,5.42
2023-03-27T11:34:28.648Z,5.47
2023-03-27T11:35:39.113Z,5.53
2023-03-27T11:37:07.589Z,5.60
2023-03-27T11:38:20.765Z,5.60
2023-03-27T11:39:32.084Z,5.65
2023-03-27T11:40:43.063Z,5.70
2023-03-27T11:41:52.480Z,5.68
2023-03-27T11:42:57.551Z,5.67
2023-03-27T11:44:00.593Z,5.72
2023-03-27T11:45:43.111Z,5.63
2023-03-27T11:47:10.138Z,5.64
2023-03-27T11:48:41.820Z,5.52
2023-03-27T11:50:06.407Z,5.44
2023-03-27T11:51:22.086Z,5.35
2023-03-27T11:52:36.441Z,5.30
2023-03-27T11:54:05.426Z,5.31
2023-03-27T11:55:34.641Z,5.37
2023-03-27T11:56:49.142Z,5.36
2023-03-27T11:58:19.720Z,5.44
2023-03-27T11:59:53.572Z,5.43
2023-03-27T12:01:01.866Z,5.48
2023-03-27T12:02:21.410Z,5.42
2023-03-27T12:03:59.368Z,5.50
2023-03-27T12:05:25.154Z,5.52
2023-03-27T12:06:45.294Z,5.57
2023-03-27T12:07:58.431Z,5.59
2023-03-27T12:09:31.208Z,5.55
2023-03-27T12:11:12.349Z,5.36
2023-03-27T12:12:43.356Z,5.42
2023-03-27T12:14:17.648Z,5.38
2023-03-27T12:15:46.639Z,5.31
2023-03-27T12:17:11.629Z,5.25
2023-03-27T12:19:00.544Z,5.18
2023-03-27T12:21:54.070Z,5.31
2023-03-27T12:23:08.409Z,5.37
2023-03-27T12:24:33.965Z,5.46
2023-03-27T12:26:10.806Z,5.52
2023-03-27T12:27:44.948Z,5.58
2023-03-27T12:29:45.072Z,5.63
2023-03-27T12:30:56.414Z,5.67
2023-03-27T12:32:14.391Z,5.71
2023-03-27T12:33:33.554Z,5.72
2023-03-27T12:34:54.334Z,5.74
2023-03-27T12:36:03.659Z,5.76
2023-03-27T12:37:10.404Z,5.73
2023-03-27T12:38:22.757Z,5.75
2023-03-27T12:39:28.724Z,5.72
2023-03-27T12:40:41.102Z,5.62
2023-03-27T12:41:48.307Z,5.47
2023-03-27T12:43:11.766Z,5.38
2023-03-27T12:44:18.461Z,5.34
2023-03-27T12:45:28.298Z,5.35
2023-03-27T12:46:35.686Z,5.44
2023-03-27T12:47:38.914Z,5.49
2023-03-27T12:49:00.027Z,5.51
2023-03-27T12:50:14.075Z,5.52
2023-03-27T12:51:20.438Z,5.55
2023-03-27T12:52:30.230Z,5.59
2023-03-27T12:53:59.306Z,5.63
2023-03-27T12:55:09.399Z,5.63
2023-03-27T12:56:34.731Z,5.67
2023-03-27T12:57:44.355Z,5.67
2023-03-27T12:58:52.333Z,5.72
2023-03-27T13:00:01.469Z,5.73
2023-03-27T13:01:10.967Z,5.73
2023-03-27T13:03:06.141Z,5.65
2023-03-27T13:04:29.747Z,5.65
2023-03-27T13:05:50.579Z,5.73
2023-03-27T13:07:10.557Z,5.74
2023-03-27T13:08:45.110Z,5.77
2023-03-27T13:10:10.552Z,5.80
2023-03-27T13:11:27.102Z,5.83
2023-03-27T13:12:59.884Z,5.83
2023-03-27T13:14:22.784Z,5.81
2023-03-27T13:15:37.439Z,5.77
2023-03-27T13:17:01.801Z,5.78
2023-03-27T13:18:24.152Z,5.80
2023-03-27T13:19:39.070Z,5.76
2023-03-27T13:21:05.316Z,5.71
2023-03-27T13:22:27.934Z,5.75
2023-03-27T13:23:47.004Z,5.77
2023-03-27T13:25:30.202Z,5.78
2023-03-27T13:26:46.554Z,5.76
2023-03-27T13:28:08.341Z,5.75
2023-03-27T13:29:23.936Z,5.72
2023-03-27T13:30:47.724Z,5.72
2023-03-27T13:32:37.754Z,5.77
2023-03-27T13:34:14.268Z,5.78
2023-03-27T13:35:40.657Z,5.82
2023-03-27T13:36:48.762Z,5.83
2023-03-27T13:38:00.798Z,5.81
2023-03-27T13:39:24.875Z,5.88
2023-03-27T13:40:36.580Z,5.90
2023-03-27T13:42:10.648Z,5.90
2023-03-27T13:43:25.333Z,5.83
2023-03-27T13:44:59.170Z,5.82
2023-03-27T13:46:07.776Z,5.80
2023-03-27T13:47:51.341Z,5.80
2023-03-27T13:49:16.858Z,5.81
2023-03-27T13:51:03.114Z,5.81
2023-03-27T13:52:33.304Z,5.81
2023-03-27T13:53:55.003Z,5.84
2023-03-27T13:55:44.690Z,5.85
2023-03-27T13:57:29.813Z,5.92
2023-03-27T13:58:58.835Z,5.90
2023-03-27T14:00:23.631Z,5.94
2023-03-27T14:01:52.045Z,5.91
2023-03-27T14:03:34.395Z,5.93
2023-03-27T14:04:57.296Z,5.90
2023-03-27T14:06:23.486Z,5.83
2023-03-27T14:07:53.886Z,5.87
2023-03-27T14:09:07.952Z,5.85
2023-03-27T14:10:34.433Z,5.77
2023-03-27T14:11:56.596Z,5.70
2023-03-27T14:13:31.893Z,5.58
2023-03-27T14:14:51.274Z,5.47
2023-03-27T14:16:29.493Z,5.48
2023-03-27T14:17:53.233Z,5.47
2023-03-27T14:19:18.312Z,5.46
2023-03-27T14:20:28.171Z,5.46
2023-03-27T14:21:49.861Z,5.43
2023-03-27T14:22:58.122Z,5.46
2023-03-27T14:24:16.937Z,5.41
2023-03-27T14:25:27.386Z,5.43
2023-03-27T14:26:35.091Z,5.33
2023-03-27T14:27:40.678Z,5.39
2023-03-27T14:28:49.520Z,5.44
2023-03-27T14:30:07.247Z,5.40
2023-03-27T14:31:14.738Z,5.45
2023-03-27T14:32:27.374Z,5.48
2023-03-27T14:33:29.345Z,5.51
2023-03-27T14:34:47.357Z,5.56
2023-03-27T14:36:17.586Z,5.58
2023-03-27T14:37:30.086Z,5.59
2023-03-27T14:39:02.308Z,5.62
2023-03-27T14:40:22.843Z,5.67
2023-03-27T14:41:27.856Z,5.71
2023-03-27T14:42:34.847Z,5.72
2023-03-27T14:43:48.028Z,5.73
2023-03-27T14:44:50.880Z,5.73
2023-03-27T14:45:56.713Z,5.74
2023-03-27T14:47:03.750Z,5.76
2023-03-27T14:48:15.334Z,5.76
2023-03-27T14:49:28.776Z,5.79
2023-03-27T14:50:40.900Z,5.78
2023-03-27T14:51:48.184Z,5.80
2023-03-27T14:53:11.392Z,5.78
2023-03-27T14:54:44.604Z,5.79
2023-03-27T14:55:52.862Z,5.80
2023-03-27T14:57:21.892Z,5.81
2023-03-27T14:58:28.825Z,5.78
2023-03-27T14:59:35.838Z,5.62
2023-03-27T15:00:43.232Z,5.49
2023-03-27T15:01:49.140Z,5.47
2023-03-27T15:02:57.165Z,5.47
2023-03-27T15:04:00.067Z,5.49
2023-03-27T15:05:05.801Z,5.54
2023-03-27T15:06:15.160Z,5.57
2023-03-27T15:07:28.543Z,5.60
2023-03-27T15:08:38.949Z,5.64
2023-03-27T15:10:22.432Z,5.68
2023-03-27T15:11:58.980Z,5.74
2023-03-27T15:13:04.445Z,5.77
2023-03-27T15:14:13.841Z,5.80
2023-03-27T15:15:25.007Z,5.79
2023-03-27T15:16:32.425Z,5.81
2023-03-27T15:17:38.641Z,5.83
2023-03-27T15:18:52.981Z,5.85
2023-03-27T15:20:04.886Z,5.86
2023-03-27T15:21:13.688Z,5.87
2023-03-27T15:22:22.980Z,5.86
2023-03-27T15:23:33.630Z,5.87
2023-03-27T15:24:41.943Z,5.86
2023-03-27T15:25:49.879Z,5.88
2023-03-27T15:26:55.396Z,5.89
2023-03-27T15:28:03.578Z,5.88
2023-03-27T15:29:14.021Z,5.90
2023-03-27T15:30:25.494Z,5.90
2023-03-27T15:31:30.019Z,5.91
2023-03-27T15:32:42.425Z,5.91
2023-03-27T15:34:02.113Z,5.93
2023-03-27T15:35:06.699Z,5.93
2023-03-27T15:36:22.489Z,5.94
2023-03-27T15:37:28.521Z,5.93
2023-03-27T15:38:36.206Z,5.91
2023-03-27T15:39:58.237Z,5.90
2023-03-27T15:41:22.865Z,5.91
2023-03-27T15:42:26.218Z,5.93
2023-03-27T15:43:30.135Z,5.95
2023-03-27T15:44:34.635Z,5.98
2023-03-27T15:45:40.007Z,6.03
2023-03-27T15:46:50.684Z,6.05
2023-03-27T15:48:02.835Z,6.06
2023-03-27T15:49:24.317Z,6.03
2023-03-27T15:50:28.019Z,6.01
2023-03-27T15:51:31.067Z,5.99
2023-03-27T15:52:34.967Z,6.01
2023-03-27T15:53:41.064Z,6.02
2023-03-27T15:54:55.341Z,6.02
2023-03-27T15:55:57.914Z,6.06
2023-03-27T15:57:09.768Z,6.08
2023-03-27T15:58:16.598Z,6.09
2023-03-27T15:59:23.156Z,6.11
2023-03-27T16:00:28.783Z,6.11
2023-03-27T16:01:33.459Z,6.13
2023-03-27T16:02:37.198Z,6.14
2023-03-27T16:03:42.006Z,6.16